Terminal Aerodrome Forecast
Issued by NWS Binghamton, NY

Home | Current Version | Previous Version | Text Only | Print | Product List | Glossary On
Versions: 1 2 3 4 5 6 7 8 9 10 11 12 13 14 15
000
FTUS41 KBGM 282300
TAFAVP
TAF
KAVP 282320Z 0100/0124 10002KT P6SM FEW180
     FM010800 12002KT P6SM OVC070
     FM011200 17003KT P6SM OVC035
      TEMPO 0112/0116 2SM -SN BR OVC025
     FM011600 20005KT 2SM -SN BR OVC015=

USA.gov is the U.S. government's official web portal to all federal, state and local government web resources and services.